sensor_id;sensor_type;location;lat;lon;timestamp;temperature;humidity
23721;DHT22;42950;52.134;5.578;2023-01-01T00:01:21;15.60;99.90
23721;DHT22;42950;52.134;5.578;2023-01-01T00:03:50;15.60;99.90
23721;DHT22;42950;52.134;5.578;2023-01-01T00:06:16;15.60;99.90
23721;DHT22;42950;52.134;5.578;2023-01-01T00:08:42;15.60;99.90
23721;DHT22;42950;52.134;5.578;2023-01-01T00:11:09;15.70;99.90
23721;DHT22;42950;52.134;5.578;2023-01-01T00:13:36;15.70;99.90
23721;DHT22;42950;52.134;5.578;2023-01-01T00:16:13;15.60;99.90
23721;DHT22;42950;52.134;5.578;2023-01-01T00:18:39;15.60;99.90
23721;DHT22;42950;52.134;5.578;2023-01-01T00:21:07;15.60;99.90
23721;DHT22;42950;52.134;5.578;2023-01-01T00:23:33;15.50;99.90
23721;DHT22;42950;52.134;5.578;2023-01-01T00:26:00;15.50;99.90
23721;DHT22;42950;52.134;5.578;2023-01-01T00:28:26;15.50;99.90
23721;DHT22;42950;52.134;5.578;2023-01-01T00:30:52;15.50;99.90
23721;DHT22;42950;52.134;5.578;2023-01-01T00:33:17;15.40;99.90
23721;DHT22;42950;52.134;5.578;2023-01-01T00:35:43;15.50;99.90
23721;DHT22;42950;52.134;5.578;2023-01-01T00:38:08;15.50;99.90
23721;DHT22;42950;52.134;5.578;2023-01-01T00:40:34;15.40;99.90
23721;DHT22;42950;52.134;5.578;2023-01-01T00:42:59;15.50;99.90
23721;DHT22;42950;52.134;5.578;2023-01-01T00:45:25;15.50;99.90
23721;DHT22;42950;52.134;5.578;2023-01-01T00:47:52;15.50;99.90
23721;DHT22;42950;52.134;5.578;2023-01-01T00:50:21;15.50;99.90
23721;DHT22;42950;52.134;5.578;2023-01-01T00:52:47;15.50;99.90
23721;DHT22;42950;52.134;5.578;2023-01-01T00:55:13;15.50;99.90
23721;DHT22;42950;52.134;5.578;2023-01-01T00:57:39;15.50;99.90
23721;DHT22;42950;52.134;5.578;2023-01-01T01:00:05;15.50;99.90
23721;DHT22;42950;52.134;5.578;2023-01-01T01:02:31;15.50;99.90
23721;DHT22;42950;52.134;5.578;2023-01-01T01:04:56;15.50;99.90
23721;DHT22;42950;52.134;5.578;2023-01-01T01:07:22;15.50;99.90
23721;DHT22;42950;52.134;5.578;2023-01-01T01:09:47;15.50;99.90
23721;DHT22;42950;52.134;5.578;2023-01-01T01:12:13;15.50;99.90
23721;DHT22;42950;52.134;5.578;2023-01-01T01:14:38;15.50;99.90
23721;DHT22;42950;52.134;5.578;2023-01-01T01:17:04;15.50;99.90
23721;DHT22;42950;52.134;5.578;2023-01-01T01:19:29;15.50;99.90
23721;DHT22;42950;52.134;5.578;2023-01-01T01:21:55;15.50;99.90
23721;DHT22;42950;52.134;5.578;2023-01-01T01:24:20;15.50;99.90
23721;DHT22;42950;52.134;5.578;2023-01-01T01:26:46;15.40;99.90
23721;DHT22;42950;52.134;5.578;2023-01-01T01:29:11;15.40;99.90
23721;DHT22;42950;52.134;5.578;2023-01-01T01:31:37;15.40;99.90
23721;DHT22;42950;52.134;5.578;2023-01-01T01:34:02;15.40;99.90
23721;DHT22;42950;52.134;5.578;2023-01-01T01:36:28;15.30;99.90
23721;DHT22;42950;52.134;5.578;2023-01-01T01:38:54;15.30;99.90
23721;DHT22;42950;52.134;5.578;2023-01-01T01:41:22;15.20;99.90
23721;DHT22;42950;52.134;5.578;2023-01-01T01:44:02;15.20;99.90
23721;DHT22;42950;52.134;5.578;2023-01-01T01:46:40;15.20;99.90
23721;DHT22;42950;52.134;5.578;2023-01-01T01:49:16;15.10;99.90
23721;DHT22;42950;52.134;5.578;2023-01-01T01:51:42;15.00;99.90
23721;DHT22;42950;52.134;5.578;2023-01-01T01:54:13;15.00;99.90
23721;DHT22;42950;52.134;5.578;2023-01-01T01:57:00;15.00;99.90
23721;DHT22;42950;52.134;5.578;2023-01-01T01:59:32;14.90;99.90
23721;DHT22;42950;52.134;5.578;2023-01-01T02:01:59;14.90;99.90
23721;DHT22;42950;52.134;5.578;2023-01-01T02:04:26;14.90;99.90
23721;DHT22;42950;52.134;5.578;2023-01-01T02:06:51;14.90;99.90
23721;DHT22;42950;52.134;5.578;2023-01-01T02:09:20;14.90;99.90
23721;DHT22;42950;52.134;5.578;2023-01-01T02:11:45;14.90;99.90
23721;DHT22;42950;52.134;5.578;2023-01-01T02:14:11;14.90;99.90
23721;DHT22;42950;52.134;5.578;2023-01-01T02:16:45;14.90;99.90
23721;DHT22;42950;52.134;5.578;2023-01-01T02:22:15;14.90;99.90
23721;DHT22;42950;52.134;5.578;2023-01-01T02:28:11;14.80;99.90
23721;DHT22;42950;52.134;5.578;2023-01-01T02:30:38;14.80;99.90
23721;DHT22;42950;52.134;5.578;2023-01-01T02:33:10;14.80;99.90
23721;DHT22;42950;52.134;5.578;2023-01-01T02:35:41;14.80;99.90
23721;DHT22;42950;52.134;5.578;2023-01-01T02:40:45;14.80;99.90
23721;DHT22;42950;52.134;5.578;2023-01-01T02:43:11;14.80;99.90
23721;DHT22;42950;52.134;5.578;2023-01-01T02:45:37;14.80;99.90
23721;DHT22;42950;52.134;5.578;2023-01-01T02:48:05;14.80;99.90
23721;DHT22;42950;52.134;5.578;2023-01-01T02:50:32;14.80;99.90
23721;DHT22;42950;52.134;5.578;2023-01-01T02:55:26;14.90;99.90
23721;DHT22;42950;52.134;5.578;2023-01-01T02:58:06;14.80;99.90
23721;DHT22;42950;52.134;5.578;2023-01-01T03:00:57;14.80;99.90
23721;DHT22;42950;52.134;5.578;2023-01-01T03:03:30;14.80;99.90
23721;DHT22;42950;52.134;5.578;2023-01-01T03:09:09;14.90;99.90
23721;DHT22;42950;52.134;5.578;2023-01-01T03:11:41;14.90;99.90
23721;DHT22;42950;52.134;5.578;2023-01-01T03:15:01;14.80;99.90
23721;DHT22;42950;52.134;5.578;2023-01-01T03:17:32;14.90;99.90
23721;DHT22;42950;52.134;5.578;2023-01-01T03:20:02;14.80;99.90
23721;DHT22;42950;52.134;5.578;2023-01-01T03:22:34;14.90;99.90
23721;DHT22;42950;52.134;5.578;2023-01-01T03:25:09;14.90;99.90
23721;DHT22;42950;52.134;5.578;2023-01-01T03:27:38;14.90;99.90
23721;DHT22;42950;52.134;5.578;2023-01-01T03:30:08;14.90;99.90
23721;DHT22;42950;52.134;5.578;2023-01-01T03:32:38;14.80;99.90
23721;DHT22;42950;52.134;5.578;2023-01-01T03:36:03;14.90;99.90
23721;DHT22;42950;52.134;5.578;2023-01-01T03:38:40;14.90;99.90
23721;DHT22;42950;52.134;5.578;2023-01-01T03:41:12;14.90;99.90
23721;DHT22;42950;52.134;5.578;2023-01-01T03:43:43;14.80;99.90
23721;DHT22;42950;52.134;5.578;2023-01-01T03:46:12;14.80;99.90
23721;DHT22;42950;52.134;5.578;2023-01-01T03:48:38;14.80;99.90
23721;DHT22;42950;52.134;5.578;2023-01-01T03:51:31;14.80;99.90
23721;DHT22;42950;52.134;5.578;2023-01-01T03:54:07;14.80;99.90
23721;DHT22;42950;52.134;5.578;2023-01-01T03:56:39;14.80;99.90
23721;DHT22;42950;52.134;5.578;2023-01-01T03:59:22;14.80;99.90
23721;DHT22;42950;52.134;5.578;2023-01-01T04:01:52;14.80;99.90
23721;DHT22;42950;52.134;5.578;2023-01-01T04:04:25;14.80;99.90
23721;DHT22;42950;52.134;5.578;2023-01-01T04:06:51;14.90;99.90
23721;DHT22;42950;52.134;5.578;2023-01-01T04:09:22;14.90;99.90
23721;DHT22;42950;52.134;5.578;2023-01-01T04:11:50;14.90;99.90
23721;DHT22;42950;52.134;5.578;2023-01-01T04:14:36;14.80;99.90
23721;DHT22;42950;52.134;5.578;2023-01-01T04:17:03;14.60;99.90
23721;DHT22;42950;52.134;5.578;2023-01-01T04:19:29;14.40;99.90
23721;DHT22;42950;52.134;5.578;2023-01-01T04:21:55;14.30;99.90
23721;DHT22;42950;52.134;5.578;2023-01-01T04:24:21;14.20;99.90
23721;DHT22;42950;52.134;5.578;2023-01-01T04:26:48;14.10;99.90
23721;DHT22;42950;52.134;5.578;2023-01-01T04:29:14;14.00;99.90
23721;DHT22;42950;52.134;5.578;2023-01-01T04:31:40;14.00;99.90
23721;DHT22;42950;52.134;5.578;2023-01-01T04:34:05;13.80;99.90
23721;DHT22;42950;52.134;5.578;2023-01-01T04:36:31;13.70;99.90
23721;DHT22;42950;52.134;5.578;2023-01-01T04:38:57;13.60;99.90
23721;DHT22;42950;52.134;5.578;2023-01-01T04:41:23;13.50;99.90
23721;DHT22;42950;52.134;5.578;2023-01-01T04:43:48;13.50;99.90
23721;DHT22;42950;52.134;5.578;2023-01-01T04:46:15;13.40;99.90
23721;DHT22;42950;52.134;5.578;2023-01-01T04:48:40;13.20;99.90
23721;DHT22;42950;52.134;5.578;2023-01-01T04:51:06;13.10;99.90
23721;DHT22;42950;52.134;5.578;2023-01-01T04:53:33;13.10;99.90
23721;DHT22;42950;52.134;5.578;2023-01-01T04:56:03;13.10;99.90
23721;DHT22;42950;52.134;5.578;2023-01-01T04:58:30;13.10;99.90
23721;DHT22;42950;52.134;5.578;2023-01-01T05:00:55;13.10;99.90
23721;DHT22;42950;52.134;5.578;2023-01-01T05:03:22;13.10;99.90
23721;DHT22;42950;52.134;5.578;2023-01-01T05:05:59;13.00;99.90
23721;DHT22;42950;52.134;5.578;2023-01-01T05:08:24;13.10;99.90
23721;DHT22;42950;52.134;5.578;2023-01-01T05:10:50;13.10;99.90
23721;DHT22;42950;52.134;5.578;2023-01-01T05:13:15;13.10;99.90
23721;DHT22;42950;52.134;5.578;2023-01-01T05:15:41;13.20;99.90
23721;DHT22;42950;52.134;5.578;2023-01-01T05:18:06;13.20;99.90
23721;DHT22;42950;52.134;5.578;2023-01-01T05:20:32;13.20;99.90
23721;DHT22;42950;52.134;5.578;2023-01-01T05:22:57;13.20;99.90
23721;DHT22;42950;52.134;5.578;2023-01-01T05:25:23;13.30;99.90
23721;DHT22;42950;52.134;5.578;2023-01-01T05:27:49;13.40;99.90
23721;DHT22;42950;52.134;5.578;2023-01-01T05:30:15;13.40;99.90
23721;DHT22;42950;52.134;5.578;2023-01-01T05:32:40;13.50;99.90
23721;DHT22;42950;52.134;5.578;2023-01-01T05:35:06;13.60;99.90
23721;DHT22;42950;52.134;5.578;2023-01-01T05:37:32;13.60;99.90
23721;DHT22;42950;52.134;5.578;2023-01-01T05:39:58;13.60;99.90
23721;DHT22;42950;52.134;5.578;2023-01-01T05:42:23;13.50;99.90
23721;DHT22;42950;52.134;5.578;2023-01-01T05:44:49;13.60;99.90
23721;DHT22;42950;52.134;5.578;2023-01-01T05:47:14;13.60;99.90
23721;DHT22;42950;52.134;5.578;2023-01-01T05:49:42;13.60;99.90
23721;DHT22;42950;52.134;5.578;2023-01-01T05:52:08;13.60;99.90
23721;DHT22;42950;52.134;5.578;2023-01-01T05:54:33;13.60;99.90
23721;DHT22;42950;52.134;5.578;2023-01-01T05:56:59;13.60;99.90
23721;DHT22;42950;52.134;5.578;2023-01-01T05:59:24;13.50;99.90
23721;DHT22;42950;52.134;5.578;2023-01-01T06:01:50;13.60;99.90
23721;DHT22;42950;52.134;5.578;2023-01-01T06:04:16;13.60;99.90
23721;DHT22;42950;52.134;5.578;2023-01-01T06:06:41;13.50;99.90
23721;DHT22;42950;52.134;5.578;2023-01-01T06:09:09;13.60;99.90
23721;DHT22;42950;52.134;5.578;2023-01-01T06:11:35;13.50;99.90
23721;DHT22;42950;52.134;5.578;2023-01-01T06:14:01;13.50;99.90
23721;DHT22;42950;52.134;5.578;2023-01-01T06:16:28;13.50;99.90
23721;DHT22;42950;52.134;5.578;2023-01-01T06:18:54;13.40;99.90
23721;DHT22;42950;52.134;5.578;2023-01-01T06:21:23;13.50;99.90
23721;DHT22;42950;52.134;5.578;2023-01-01T06:23:49;13.40;99.90
23721;DHT22;42950;52.134;5.578;2023-01-01T06:26:16;13.40;99.90
23721;DHT22;42950;52.134;5.578;2023-01-01T06:28:43;13.30;99.90
23721;DHT22;42950;52.134;5.578;2023-01-01T06:31:10;13.30;99.90
23721;DHT22;42950;52.134;5.578;2023-01-01T06:33:37;13.30;99.90
23721;DHT22;42950;52.134;5.578;2023-01-01T06:36:05;13.30;99.90
23721;DHT22;42950;52.134;5.578;2023-01-01T06:38:37;13.30;99.90
23721;DHT22;42950;52.134;5.578;2023-01-01T06:41:09;13.20;99.90
23721;DHT22;42950;52.134;5.578;2023-01-01T06:43:36;13.20;99.90
23721;DHT22;42950;52.134;5.578;2023-01-01T06:46:14;13.20;99.90
23721;DHT22;42950;52.134;5.578;2023-01-01T06:48:40;13.20;99.90
23721;DHT22;42950;52.134;5.578;2023-01-01T06:51:08;13.20;99.90
23721;DHT22;42950;52.134;5.578;2023-01-01T06:53:35;13.10;99.90
23721;DHT22;42950;52.134;5.578;2023-01-01T06:56:00;13.00;99.90
23721;DHT22;42950;52.134;5.578;2023-01-01T06:58:26;13.00;99.90
23721;DHT22;42950;52.134;5.578;2023-01-01T07:00:51;13.00;99.90
23721;DHT22;42950;52.134;5.578;2023-01-01T07:03:17;12.90;99.90
23721;DHT22;42950;52.134;5.578;2023-01-01T07:05:42;13.00;99.90
23721;DHT22;42950;52.134;5.578;2023-01-01T07:08:08;12.90;99.90
23721;DHT22;42950;52.134;5.578;2023-01-01T07:10:34;12.90;99.90
23721;DHT22;42950;52.134;5.578;2023-01-01T07:12:59;12.90;99.90
23721;DHT22;42950;52.134;5.578;2023-01-01T07:15:25;12.90;99.90
23721;DHT22;42950;52.134;5.578;2023-01-01T07:17:51;12.90;99.90
23721;DHT22;42950;52.134;5.578;2023-01-01T07:20:17;12.90;99.90
23721;DHT22;42950;52.134;5.578;2023-01-01T07:22:42;12.80;99.90
23721;DHT22;42950;52.134;5.578;2023-01-01T07:25:09;12.80;99.90
23721;DHT22;42950;52.134;5.578;2023-01-01T07:27:38;12.70;99.90
23721;DHT22;42950;52.134;5.578;2023-01-01T07:30:04;12.70;99.90
23721;DHT22;42950;52.134;5.578;2023-01-01T07:32:29;12.60;99.90
23721;DHT22;42950;52.134;5.578;2023-01-01T07:34:55;12.60;99.90
23721;DHT22;42950;52.134;5.578;2023-01-01T07:37:20;12.60;99.90
23721;DHT22;42950;52.134;5.578;2023-01-01T07:39:50;12.50;99.90
23721;DHT22;42950;52.134;5.578;2023-01-01T07:42:16;12.50;99.90
23721;DHT22;42950;52.134;5.578;2023-01-01T07:44:41;12.40;99.90
23721;DHT22;42950;52.134;5.578;2023-01-01T07:47:21;12.30;99.90
23721;DHT22;42950;52.134;5.578;2023-01-01T07:49:47;12.30;99.90
23721;DHT22;42950;52.134;5.578;2023-01-01T07:52:13;12.30;99.90
23721;DHT22;42950;52.134;5.578;2023-01-01T07:54:38;12.20;99.90
23721;DHT22;42950;52.134;5.578;2023-01-01T07:57:04;12.20;99.90
23721;DHT22;42950;52.134;5.578;2023-01-01T07:59:29;12.10;99.90
23721;DHT22;42950;52.134;5.578;2023-01-01T08:01:55;12.10;99.90
23721;DHT22;42950;52.134;5.578;2023-01-01T08:04:21;12.10;99.90
23721;DHT22;42950;52.134;5.578;2023-01-01T08:06:46;12.10;99.90
23721;DHT22;42950;52.134;5.578;2023-01-01T08:09:12;12.10;99.90
23721;DHT22;42950;52.134;5.578;2023-01-01T08:11:37;12.10;99.90
23721;DHT22;42950;52.134;5.578;2023-01-01T08:14:03;12.10;99.90
23721;DHT22;42950;52.134;5.578;2023-01-01T08:16:29;12.10;99.90
23721;DHT22;42950;52.134;5.578;2023-01-01T08:18:54;12.10;99.90
23721;DHT22;42950;52.134;5.578;2023-01-01T08:21:20;12.10;99.90
23721;DHT22;42950;52.134;5.578;2023-01-01T08:23:45;12.00;99.90
23721;DHT22;42950;52.134;5.578;2023-01-01T08:26:15;12.00;99.90
23721;DHT22;42950;52.134;5.578;2023-01-01T08:28:41;12.00;99.90
23721;DHT22;42950;52.134;5.578;2023-01-01T08:31:07;12.00;99.90
23721;DHT22;42950;52.134;5.578;2023-01-01T08:33:33;12.00;99.90
23721;DHT22;42950;52.134;5.578;2023-01-01T08:35:59;12.00;99.90
23721;DHT22;42950;52.134;5.578;2023-01-01T08:38:25;11.90;99.90
23721;DHT22;42950;52.134;5.578;2023-01-01T08:40:50;12.00;99.90
23721;DHT22;42950;52.134;5.578;2023-01-01T08:43:16;12.00;99.90
23721;DHT22;42950;52.134;5.578;2023-01-01T08:45:42;12.00;99.90
23721;DHT22;42950;52.134;5.578;2023-01-01T08:48:07;12.00;99.90
23721;DHT22;42950;52.134;5.578;2023-01-01T08:50:33;12.00;99.90
23721;DHT22;42950;52.134;5.578;2023-01-01T08:52:59;12.00;99.90
23721;DHT22;42950;52.134;5.578;2023-01-01T08:55:25;12.00;99.90
23721;DHT22;42950;52.134;5.578;2023-01-01T08:57:50;12.00;99.90
23721;DHT22;42950;52.134;5.578;2023-01-01T09:00:16;12.00;99.90
23721;DHT22;42950;52.134;5.578;2023-01-01T09:02:42;12.00;99.90
23721;DHT22;42950;52.134;5.578;2023-01-01T09:05:08;11.90;99.90
23721;DHT22;42950;52.134;5.578;2023-01-01T09:07:34;11.90;99.90
23721;DHT22;42950;52.134;5.578;2023-01-01T09:10:00;11.90;99.90
23721;DHT22;42950;52.134;5.578;2023-01-01T09:12:25;11.90;99.90
23721;DHT22;42950;52.134;5.578;2023-01-01T09:14:51;11.90;99.90
23721;DHT22;42950;52.134;5.578;2023-01-01T09:17:17;11.90;99.90
23721;DHT22;42950;52.134;5.578;2023-01-01T09:19:42;12.00;99.90
23721;DHT22;42950;52.134;5.578;2023-01-01T09:22:11;11.90;99.90
23721;DHT22;42950;52.134;5.578;2023-01-01T09:24:37;11.90;99.90
23721;DHT22;42950;52.134;5.578;2023-01-01T09:27:03;11.90;99.90
23721;DHT22;42950;52.134;5.578;2023-01-01T09:29:28;11.90;99.90
23721;DHT22;42950;52.134;5.578;2023-01-01T09:31:54;11.90;99.90
23721;DHT22;42950;52.134;5.578;2023-01-01T09:34:19;12.00;99.90
23721;DHT22;42950;52.134;5.578;2023-01-01T09:36:45;12.00;99.90
23721;DHT22;42950;52.134;5.578;2023-01-01T09:39:12;12.00;99.90
23721;DHT22;42950;52.134;5.578;2023-01-01T09:49:50;12.10;99.90
23721;DHT22;42950;52.134;5.578;2023-01-01T09:52:16;12.20;99.90
23721;DHT22;42950;52.134;5.578;2023-01-01T09:54:58;12.20;99.90
23721;DHT22;42950;52.134;5.578;2023-01-01T09:57:28;12.20;99.90
23721;DHT22;42950;52.134;5.578;2023-01-01T09:59:58;12.30;99.90
23721;DHT22;42950;52.134;5.578;2023-01-01T10:07:37;12.40;99.90
23721;DHT22;42950;52.134;5.578;2023-01-01T10:10:28;12.40;99.90
23721;DHT22;42950;52.134;5.578;2023-01-01T10:13:05;12.50;99.90
23721;DHT22;42950;52.134;5.578;2023-01-01T10:15:38;12.50;99.90
23721;DHT22;42950;52.134;5.578;2023-01-01T10:18:13;12.60;99.90
23721;DHT22;42950;52.134;5.578;2023-01-01T10:20:47;12.70;99.90
23721;DHT22;42950;52.134;5.578;2023-01-01T10:25:39;12.70;99.90
23721;DHT22;42950;52.134;5.578;2023-01-01T10:28:20;12.60;99.90
23721;DHT22;42950;52.134;5.578;2023-01-01T10:30:47;12.60;99.90
23721;DHT22;42950;52.134;5.578;2023-01-01T10:33:14;12.60;99.90
23721;DHT22;42950;52.134;5.578;2023-01-01T10:35:49;12.60;99.90
23721;DHT22;42950;52.134;5.578;2023-01-01T10:38:25;12.70;99.90
23721;DHT22;42950;52.134;5.578;2023-01-01T10:40:53;12.70;99.90
23721;DHT22;42950;52.134;5.578;2023-01-01T10:43:20;12.70;99.90
23721;DHT22;42950;52.134;5.578;2023-01-01T10:45:51;12.60;99.90
23721;DHT22;42950;52.134;5.578;2023-01-01T10:48:21;12.70;99.90
23721;DHT22;42950;52.134;5.578;2023-01-01T10:50:50;12.60;99.90
23721;DHT22;42950;52.134;5.578;2023-01-01T10:53:36;12.70;99.90
23721;DHT22;42950;52.134;5.578;2023-01-01T10:56:05;12.70;99.90
23721;DHT22;42950;52.134;5.578;2023-01-01T10:58:38;12.70;99.90
23721;DHT22;42950;52.134;5.578;2023-01-01T11:01:07;12.80;99.90
23721;DHT22;42950;52.134;5.578;2023-01-01T11:03:33;12.80;99.90
23721;DHT22;42950;52.134;5.578;2023-01-01T11:06:13;12.80;99.90
23721;DHT22;42950;52.134;5.578;2023-01-01T11:08:53;12.80;99.90
23721;DHT22;42950;52.134;5.578;2023-01-01T11:11:26;12.80;99.90
23721;DHT22;42950;52.134;5.578;2023-01-01T11:13:54;12.80;99.90
23721;DHT22;42950;52.134;5.578;2023-01-01T11:16:20;12.80;99.90
23721;DHT22;42950;52.134;5.578;2023-01-01T11:18:46;12.80;99.90
23721;DHT22;42950;52.134;5.578;2023-01-01T11:21:20;12.90;99.90
23721;DHT22;42950;52.134;5.578;2023-01-01T11:23:46;12.90;99.90
23721;DHT22;42950;52.134;5.578;2023-01-01T11:28:42;13.00;99.90
23721;DHT22;42950;52.134;5.578;2023-01-01T11:31:25;13.00;99.90
23721;DHT22;42950;52.134;5.578;2023-01-01T11:33:54;13.00;99.90
23721;DHT22;42950;52.134;5.578;2023-01-01T11:36:26;13.00;99.90
23721;DHT22;42950;52.134;5.578;2023-01-01T11:39:17;13.00;99.90
23721;DHT22;42950;52.134;5.578;2023-01-01T11:41:47;13.00;99.90
23721;DHT22;42950;52.134;5.578;2023-01-01T11:44:31;12.90;99.90
23721;DHT22;42950;52.134;5.578;2023-01-01T11:46:59;12.80;99.90
23721;DHT22;42950;52.134;5.578;2023-01-01T11:49:26;12.80;99.90
23721;DHT22;42950;52.134;5.578;2023-01-01T11:51:53;12.80;99.90
23721;DHT22;42950;52.134;5.578;2023-01-01T11:56:53;12.80;99.90
23721;DHT22;42950;52.134;5.578;2023-01-01T11:59:25;12.90;99.90
23721;DHT22;42950;52.134;5.578;2023-01-01T12:01:57;12.90;99.90
23721;DHT22;42950;52.134;5.578;2023-01-01T12:04:28;12.90;99.90
23721;DHT22;42950;52.134;5.578;2023-01-01T12:07:01;12.80;99.90
23721;DHT22;42950;52.134;5.578;2023-01-01T12:09:43;12.90;99.90
23721;DHT22;42950;52.134;5.578;2023-01-01T12:15:21;12.90;99.90
23721;DHT22;42950;52.134;5.578;2023-01-01T12:18:11;13.00;99.90
23721;DHT22;42950;52.134;5.578;2023-01-01T12:20:41;13.00;99.90
23721;DHT22;42950;52.134;5.578;2023-01-01T12:23:10;13.00;99.90
23721;DHT22;42950;52.134;5.578;2023-01-01T12:25:40;13.10;99.90
23721;DHT22;42950;52.134;5.578;2023-01-01T12:31:02;13.10;99.90
23721;DHT22;42950;52.134;5.578;2023-01-01T12:39:31;13.30;99.90
23721;DHT22;42950;52.134;5.578;2023-01-01T12:50:16;13.30;99.90
23721;DHT22;42950;52.134;5.578;2023-01-01T12:53:27;13.30;99.90
23721;DHT22;42950;52.134;5.578;2023-01-01T12:58:09;13.30;99.90
23721;DHT22;42950;52.134;5.578;2023-01-01T13:00:38;13.30;99.90
23721;DHT22;42950;52.134;5.578;2023-01-01T13:03:14;13.30;99.90
23721;DHT22;42950;52.134;5.578;2023-01-01T13:05:43;13.30;99.90
23721;DHT22;42950;52.134;5.578;2023-01-01T13:08:10;13.30;99.90
23721;DHT22;42950;52.134;5.578;2023-01-01T13:10:42;13.30;99.90
23721;DHT22;42950;52.134;5.578;2023-01-01T13:13:10;13.30;99.90
23721;DHT22;42950;52.134;5.578;2023-01-01T13:18:27;13.40;99.90
23721;DHT22;42950;52.134;5.578;2023-01-01T13:20:56;13.40;99.90
23721;DHT22;42950;52.134;5.578;2023-01-01T13:29:32;13.30;99.90
23721;DHT22;42950;52.134;5.578;2023-01-01T13:45:36;13.30;99.90
23721;DHT22;42950;52.134;5.578;2023-01-01T14:04:59;13.20;99.90
23721;DHT22;42950;52.134;5.578;2023-01-01T14:10:33;13.20;99.90
23721;DHT22;42950;52.134;5.578;2023-01-01T14:15:32;13.20;99.90
23721;DHT22;42950;52.134;5.578;2023-01-01T14:18:00;13.20;99.90
23721;DHT22;42950;52.134;5.578;2023-01-01T14:20:44;13.20;99.90
23721;DHT22;42950;52.134;5.578;2023-01-01T14:23:34;13.20;99.90
23721;DHT22;42950;52.134;5.578;2023-01-01T14:26:05;13.20;99.90
23721;DHT22;42950;52.134;5.578;2023-01-01T14:28:33;13.20;99.90
23721;DHT22;42950;52.134;5.578;2023-01-01T14:31:02;13.10;99.90
23721;DHT22;42950;52.134;5.578;2023-01-01T14:33:31;13.10;99.90
23721;DHT22;42950;52.134;5.578;2023-01-01T14:36:02;13.20;99.90
23721;DHT22;42950;52.134;5.578;2023-01-01T14:38:33;13.20;99.90
23721;DHT22;42950;52.134;5.578;2023-01-01T14:41:10;13.10;99.90
23721;DHT22;42950;52.134;5.578;2023-01-01T14:43:40;13.10;99.90
23721;DHT22;42950;52.134;5.578;2023-01-01T14:46:07;13.10;99.90
23721;DHT22;42950;52.134;5.578;2023-01-01T14:48:48;13.00;99.90
23721;DHT22;42950;52.134;5.578;2023-01-01T14:51:18;13.00;99.90
23721;DHT22;42950;52.134;5.578;2023-01-01T14:53:45;12.90;99.90
23721;DHT22;42950;52.134;5.578;2023-01-01T14:56:35;12.90;99.90
23721;DHT22;42950;52.134;5.578;2023-01-01T15:02:00;13.00;99.90
23721;DHT22;42950;52.134;5.578;2023-01-01T15:04:27;13.00;99.90
23721;DHT22;42950;52.134;5.578;2023-01-01T15:09:19;12.90;99.90
23721;DHT22;42950;52.134;5.578;2023-01-01T15:11:45;13.00;99.90
23721;DHT22;42950;52.134;5.578;2023-01-01T15:14:32;13.00;99.90
23721;DHT22;42950;52.134;5.578;2023-01-01T15:17:08;12.90;99.90
23721;DHT22;42950;52.134;5.578;2023-01-01T15:19:35;12.90;99.90
23721;DHT22;42950;52.134;5.578;2023-01-01T15:22:13;12.90;99.90
23721;DHT22;42950;52.134;5.578;2023-01-01T15:24:43;12.90;99.90
23721;DHT22;42950;52.134;5.578;2023-01-01T15:27:20;12.90;99.90
23721;DHT22;42950;52.134;5.578;2023-01-01T15:29:47;12.90;99.90
23721;DHT22;42950;52.134;5.578;2023-01-01T15:32:14;12.90;99.90
23721;DHT22;42950;52.134;5.578;2023-01-01T15:34:50;12.90;99.90
23721;DHT22;42950;52.134;5.578;2023-01-01T15:42:39;12.80;99.90
23721;DHT22;42950;52.134;5.578;2023-01-01T15:45:27;12.70;99.90
23721;DHT22;42950;52.134;5.578;2023-01-01T15:47:55;12.70;99.90
23721;DHT22;42950;52.134;5.578;2023-01-01T15:52:53;12.80;99.90
23721;DHT22;42950;52.134;5.578;2023-01-01T15:55:20;12.70;99.90
23721;DHT22;42950;52.134;5.578;2023-01-01T15:57:46;12.60;99.90
23721;DHT22;42950;52.134;5.578;2023-01-01T16:00:20;12.70;99.90
23721;DHT22;42950;52.134;5.578;2023-01-01T16:02:47;12.60;99.90
23721;DHT22;42950;52.134;5.578;2023-01-01T16:05:14;12.60;99.90
23721;DHT22;42950;52.134;5.578;2023-01-01T16:07:41;12.50;99.90
23721;DHT22;42950;52.134;5.578;2023-01-01T16:10:16;12.50;99.90
23721;DHT22;42950;52.134;5.578;2023-01-01T16:12:41;12.50;99.90
23721;DHT22;42950;52.134;5.578;2023-01-01T16:15:13;12.50;99.90
23721;DHT22;42950;52.134;5.578;2023-01-01T16:17:40;12.40;99.90
23721;DHT22;42950;52.134;5.578;2023-01-01T16:20:06;12.50;99.90
23721;DHT22;42950;52.134;5.578;2023-01-01T16:22:31;12.50;99.90
23721;DHT22;42950;52.134;5.578;2023-01-01T16:24:57;12.50;99.90
23721;DHT22;42950;52.134;5.578;2023-01-01T16:27:22;12.50;99.90
23721;DHT22;42950;52.134;5.578;2023-01-01T16:29:48;12.50;99.90
23721;DHT22;42950;52.134;5.578;2023-01-01T16:32:17;12.50;99.90
23721;DHT22;42950;52.134;5.578;2023-01-01T16:34:43;12.50;99.90
23721;DHT22;42950;52.134;5.578;2023-01-01T16:37:09;12.50;99.90
23721;DHT22;42950;52.134;5.578;2023-01-01T16:39:34;12.50;99.90
23721;DHT22;42950;52.134;5.578;2023-01-01T16:42:00;12.50;99.90
23721;DHT22;42950;52.134;5.578;2023-01-01T16:44:25;12.50;99.90
23721;DHT22;42950;52.134;5.578;2023-01-01T16:46:51;12.60;99.90
23721;DHT22;42950;52.134;5.578;2023-01-01T16:49:16;12.60;99.90
23721;DHT22;42950;52.134;5.578;2023-01-01T16:51:42;12.50;99.90
23721;DHT22;42950;52.134;5.578;2023-01-01T16:54:07;12.50;99.90
23721;DHT22;42950;52.134;5.578;2023-01-01T16:56:33;12.50;99.90
23721;DHT22;42950;52.134;5.578;2023-01-01T16:58:58;12.50;99.90
23721;DHT22;42950;52.134;5.578;2023-01-01T17:01:24;12.50;99.90
23721;DHT22;42950;52.134;5.578;2023-01-01T17:03:50;12.50;99.90
23721;DHT22;42950;52.134;5.578;2023-01-01T17:06:17;12.60;99.90
23721;DHT22;42950;52.134;5.578;2023-01-01T17:08:42;12.60;99.90
23721;DHT22;42950;52.134;5.578;2023-01-01T17:11:13;12.60;99.90
23721;DHT22;42950;52.134;5.578;2023-01-01T17:13:41;12.60;99.90
23721;DHT22;42950;52.134;5.578;2023-01-01T17:16:08;12.50;99.90
23721;DHT22;42950;52.134;5.578;2023-01-01T17:18:33;12.50;99.90
23721;DHT22;42950;52.134;5.578;2023-01-01T17:21:04;12.50;99.90
23721;DHT22;42950;52.134;5.578;2023-01-01T17:23:33;12.50;99.90
23721;DHT22;42950;52.134;5.578;2023-01-01T17:26:10;12.50;99.90
23721;DHT22;42950;52.134;5.578;2023-01-01T17:28:36;12.50;99.90
23721;DHT22;42950;52.134;5.578;2023-01-01T17:31:06;12.50;99.90
23721;DHT22;42950;52.134;5.578;2023-01-01T17:33:33;12.50;99.90
23721;DHT22;42950;52.134;5.578;2023-01-01T17:35:59;12.50;99.90
23721;DHT22;42950;52.134;5.578;2023-01-01T17:38:25;12.50;99.90